sensor_id;sensor_type;location;lat;lon;timestamp;pressure;altitude;pressure_sealevel;temperature;humidity
57086;BME280;42964;42.910;23.792;2023-04-24T00:02:03;97256.13;;;10.80;55.45
57086;BME280;42964;42.910;23.792;2023-04-24T00:07:02;97301.28;;;11.51;54.26
57086;BME280;42964;42.910;23.792;2023-04-24T00:12:01;97292.13;;;11.90;52.84
57086;BME280;42964;42.910;23.792;2023-04-24T00:17:03;97286.63;;;12.08;51.39
57086;BME280;42964;42.910;23.792;2023-04-24T00:22:02;97213.22;;;11.89;50.18
57086;BME280;42964;42.910;23.792;2023-04-24T00:27:01;97229.34;;;12.13;49.90
57086;BME280;42964;42.910;23.792;2023-04-24T00:32:01;97262.63;;;12.50;49.24
57086;BME280;42964;42.910;23.792;2023-04-24T00:37:00;97293.59;;;12.65;48.94
57086;BME280;42964;42.910;23.792;2023-04-24T00:41:58;97295.16;;;12.77;49.28
57086;BME280;42964;42.910;23.792;2023-04-24T00:46:58;97291.69;;;12.75;49.20
57086;BME280;42964;42.910;23.792;2023-04-24T00:51:57;97282.16;;;12.74;48.69
57086;BME280;42964;42.910;23.792;2023-04-24T00:56:58;97276.25;;;12.64;48.66
57086;BME280;42964;42.910;23.792;2023-04-24T01:01:57;97276.25;;;12.64;48.70
57086;BME280;42964;42.910;23.792;2023-04-24T01:06:56;97270.34;;;12.56;48.58
57086;BME280;42964;42.910;23.792;2023-04-24T01:11:56;97251.50;;;12.42;48.67
57086;BME280;42964;42.910;23.792;2023-04-24T01:16:55;97272.94;;;12.55;48.95
57086;BME280;42964;42.910;23.792;2023-04-24T01:21:54;97266.34;;;12.35;48.84
57086;BME280;42964;42.910;23.792;2023-04-24T01:26:56;97270.50;;;12.45;48.34
57086;BME280;42964;42.910;23.792;2023-04-24T01:31:55;97261.00;;;12.43;48.67
57086;BME280;42964;42.910;23.792;2023-04-24T01:36:54;97268.88;;;12.40;48.44
57086;BME280;42964;42.910;23.792;2023-04-24T01:41:54;97261.06;;;12.38;48.32
57086;BME280;42964;42.910;23.792;2023-04-24T01:46:54;97255.03;;;12.36;48.24
57086;BME280;42964;42.910;23.792;2023-04-24T01:51:53;97253.41;;;12.29;48.73
57086;BME280;42964;42.910;23.792;2023-04-24T01:56:53;97252.56;;;12.28;48.32
57086;BME280;42964;42.910;23.792;2023-04-24T02:01:52;97240.56;;;12.18;49.05
57086;BME280;42964;42.910;23.792;2023-04-24T02:06:50;97257.81;;;12.22;48.50
57086;BME280;42964;42.910;23.792;2023-04-24T02:11:49;97261.25;;;12.26;48.39
57086;BME280;42964;42.910;23.792;2023-04-24T02:16:48;97254.53;;;12.11;48.62
57086;BME280;42964;42.910;23.792;2023-04-24T02:21:47;97255.50;;;12.04;49.23
57086;BME280;42964;42.910;23.792;2023-04-24T02:26:46;97256.31;;;12.06;49.43
57086;BME280;42964;42.910;23.792;2023-04-24T02:31:45;97252.94;;;12.01;49.06
57086;BME280;42964;42.910;23.792;2023-04-24T02:36:44;97243.47;;;11.97;49.31
57086;BME280;42964;42.910;23.792;2023-04-24T02:41:43;97253.13;;;11.88;49.53
57086;BME280;42964;42.910;23.792;2023-04-24T02:46:42;97253.19;;;11.82;49.79
57086;BME280;42964;42.910;23.792;2023-04-24T02:51:41;97248.78;;;11.91;50.32
57086;BME280;42964;42.910;23.792;2023-04-24T02:56:40;97251.38;;;11.91;49.48
57086;BME280;42964;42.910;23.792;2023-04-24T03:01:39;97251.41;;;11.87;50.01
57086;BME280;42964;42.910;23.792;2023-04-24T03:06:38;97254.00;;;11.87;50.22
57086;BME280;42964;42.910;23.792;2023-04-24T03:11:37;97246.19;;;11.87;49.82
57086;BME280;42964;42.910;23.792;2023-04-24T03:16:36;97208.47;;;11.59;50.03
57086;BME280;42964;42.910;23.792;2023-04-24T03:21:35;97255.72;;;11.90;50.43
57086;BME280;42964;42.910;23.792;2023-04-24T03:26:39;97252.22;;;11.93;49.43
57086;BME280;42964;42.910;23.792;2023-04-24T03:31:37;97268.66;;;11.93;49.57
57086;BME280;42964;42.910;23.792;2023-04-24T03:36:36;97272.06;;;11.98;49.41
57086;BME280;42964;42.910;23.792;2023-04-24T03:41:35;97290.13;;;12.09;49.12
57086;BME280;42964;42.910;23.792;2023-04-24T03:46:34;97295.22;;;12.15;50.47
57086;BME280;42964;42.910;23.792;2023-04-24T03:51:33;97294.53;;;12.02;51.99
57086;BME280;42964;42.910;23.792;2023-04-24T03:56:32;97294.66;;;11.95;52.26
57086;BME280;42964;42.910;23.792;2023-04-24T04:01:31;97308.63;;;11.86;52.44
57086;BME280;42964;42.910;23.792;2023-04-24T04:06:30;97315.53;;;11.88;52.96
57086;BME280;42964;42.910;23.792;2023-04-24T04:11:32;97307.63;;;11.96;53.36
57086;BME280;42964;42.910;23.792;2023-04-24T04:16:31;97299.81;;;11.98;53.10
57086;BME280;42964;42.910;23.792;2023-04-24T04:21:30;97297.94;;;12.06;53.78
57086;BME280;42964;42.910;23.792;2023-04-24T04:26:29;97322.06;;;12.17;53.20
57086;BME280;42964;42.910;23.792;2023-04-24T04:31:31;97321.88;;;12.33;53.08
57086;BME280;42964;42.910;23.792;2023-04-24T04:36:30;97319.44;;;12.19;53.25
57086;BME280;42964;42.910;23.792;2023-04-24T04:41:29;97326.66;;;11.98;54.32
57086;BME280;42964;42.910;23.792;2023-04-24T04:46:28;97329.13;;;12.09;55.04
57086;BME280;42964;42.910;23.792;2023-04-24T04:51:30;97329.75;;;12.25;54.99
57086;BME280;42964;42.910;23.792;2023-04-24T04:56:29;97331.19;;;12.49;54.91
57086;BME280;42964;42.910;23.792;2023-04-24T05:01:29;97328.00;;;12.83;54.33
57086;BME280;42964;42.910;23.792;2023-04-24T05:06:28;97323.97;;;13.16;53.77
57086;BME280;42964;42.910;23.792;2023-04-24T05:11:26;97319.56;;;13.20;51.87
57086;BME280;42964;42.910;23.792;2023-04-24T05:16:25;97327.88;;;13.39;51.87
57086;BME280;42964;42.910;23.792;2023-04-24T05:21:24;97322.16;;;13.20;52.17
57086;BME280;42964;42.910;23.792;2023-04-24T05:26:23;97328.97;;;13.28;52.44
57086;BME280;42964;42.910;23.792;2023-04-24T05:31:22;97329.41;;;13.49;52.49
57086;BME280;42964;42.910;23.792;2023-04-24T05:36:21;97331.13;;;13.95;51.53
57086;BME280;42964;42.910;23.792;2023-04-24T05:41:20;97325.28;;;14.24;50.51
57086;BME280;42964;42.910;23.792;2023-04-24T05:46:19;97318.59;;;14.50;51.15
57086;BME280;42964;42.910;23.792;2023-04-24T05:51:19;97325.03;;;14.74;49.59
57086;BME280;42964;42.910;23.792;2023-04-24T05:56:17;97316.41;;;14.69;51.15
57086;BME280;42964;42.910;23.792;2023-04-24T06:01:17;97306.22;;;14.58;51.04
57086;BME280;42964;42.910;23.792;2023-04-24T06:06:16;97316.38;;;14.70;50.46
57086;BME280;42964;42.910;23.792;2023-04-24T06:11:16;97305.28;;;14.60;49.45
57086;BME280;42964;42.910;23.792;2023-04-24T06:16:15;97281.91;;;14.56;50.47
57086;BME280;42964;42.910;23.792;2023-04-24T06:21:16;97302.28;;;14.77;49.10
57086;BME280;42964;42.910;23.792;2023-04-24T06:26:15;97267.69;;;14.68;48.55
57086;BME280;42964;42.910;23.792;2023-04-24T06:31:14;97304.91;;;14.77;48.43
57086;BME280;42964;42.910;23.792;2023-04-24T06:36:13;97297.34;;;14.65;49.14
57086;BME280;42964;42.910;23.792;2023-04-24T06:41:12;97306.97;;;14.61;48.81
57086;BME280;42964;42.910;23.792;2023-04-24T06:46:11;97306.09;;;14.64;48.92
57086;BME280;42964;42.910;23.792;2023-04-24T06:51:10;97278.69;;;14.45;48.13
57086;BME280;42964;42.910;23.792;2023-04-24T06:56:09;97309.28;;;14.77;48.08
57086;BME280;42964;42.910;23.792;2023-04-24T07:01:08;97318.13;;;15.06;48.06
57086;BME280;42964;42.910;23.792;2023-04-24T07:06:07;97310.00;;;15.49;48.13
57086;BME280;42964;42.910;23.792;2023-04-24T07:11:06;97312.03;;;16.00;47.90
57086;BME280;42964;42.910;23.792;2023-04-24T07:16:05;97305.88;;;16.31;46.99
57086;BME280;42964;42.910;23.792;2023-04-24T07:21:04;97272.44;;;16.39;46.15
57086;BME280;42964;42.910;23.792;2023-04-24T07:26:03;97295.22;;;16.64;46.39
57086;BME280;42964;42.910;23.792;2023-04-24T07:31:02;97304.97;;;17.12;46.85
57086;BME280;42964;42.910;23.792;2023-04-24T07:36:01;97293.59;;;17.38;44.01
57086;BME280;42964;42.910;23.792;2023-04-24T07:41:00;97291.59;;;17.45;44.19
57086;BME280;42964;42.910;23.792;2023-04-24T07:45:59;97291.50;;;17.71;41.80
57086;BME280;42964;42.910;23.792;2023-04-24T07:50:58;97291.69;;;17.67;41.75
57086;BME280;42964;42.910;23.792;2023-04-24T07:55:58;97293.66;;;17.85;41.72
57086;BME280;42964;42.910;23.792;2023-04-24T08:00:57;97294.88;;;17.75;42.99
57086;BME280;42964;42.910;23.792;2023-04-24T08:05:56;97299.56;;;17.42;43.77
57086;BME280;42964;42.910;23.792;2023-04-24T08:10:55;97293.44;;;17.43;44.88
57086;BME280;42964;42.910;23.792;2023-04-24T08:15:54;97297.84;;;17.17;44.75
57086;BME280;42964;42.910;23.792;2023-04-24T08:20:54;97296.22;;;17.13;44.49
57086;BME280;42964;42.910;23.792;2023-04-24T08:25:53;97293.59;;;17.13;45.10
57086;BME280;42964;42.910;23.792;2023-04-24T08:30:52;97223.47;;;16.95;45.00
57086;BME280;42964;42.910;23.792;2023-04-24T08:35:53;97289.41;;;17.58;43.42
57086;BME280;42964;42.910;23.792;2023-04-24T08:40:52;97247.94;;;17.91;42.22
57086;BME280;42964;42.910;23.792;2023-04-24T08:45:52;97271.34;;;18.63;41.52
57086;BME280;42964;42.910;23.792;2023-04-24T08:50:51;97257.94;;;18.91;41.58
57086;BME280;42964;42.910;23.792;2023-04-24T08:55:51;97248.31;;;19.11;41.91
57086;BME280;42964;42.910;23.792;2023-04-24T09:00:51;97237.13;;;19.26;41.14
57086;BME280;42964;42.910;23.792;2023-04-24T09:05:51;97196.16;;;19.20;41.24
57086;BME280;42964;42.910;23.792;2023-04-24T09:10:51;97221.53;;;19.42;41.00
57086;BME280;42964;42.910;23.792;2023-04-24T09:15:50;97208.22;;;19.45;41.76
57086;BME280;42964;42.910;23.792;2023-04-24T09:21:03;97196.69;;;19.68;39.85
57086;BME280;42964;42.910;23.792;2023-04-24T09:26:04;97193.47;;;19.80;39.24
57086;BME280;42964;42.910;23.792;2023-04-24T09:31:12;97164.66;;;19.77;39.94
57086;BME280;42964;42.910;23.792;2023-04-24T09:36:17;97151.28;;;19.82;39.49
57086;BME280;42964;42.910;23.792;2023-04-24T09:41:16;97138.13;;;19.99;39.34
57086;BME280;42964;42.910;23.792;2023-04-24T09:46:18;97139.09;;;20.16;39.14
57086;BME280;42964;42.910;23.792;2023-04-24T09:51:17;97141.50;;;20.20;39.29
57086;BME280;42964;42.910;23.792;2023-04-24T09:56:34;97135.09;;;20.26;39.08
57086;BME280;42964;42.910;23.792;2023-04-24T10:01:33;97108.66;;;20.27;37.61
57086;BME280;42964;42.910;23.792;2023-04-24T10:06:35;97140.84;;;20.52;36.83
57086;BME280;42964;42.910;23.792;2023-04-24T10:11:35;97130.13;;;21.05;36.07
57086;BME280;42964;42.910;23.792;2023-04-24T10:16:34;97121.91;;;21.11;35.03
57086;BME280;42964;42.910;23.792;2023-04-24T10:21:34;97126.28;;;21.28;34.60
57086;BME280;42964;42.910;23.792;2023-04-24T10:26:34;97117.09;;;21.20;34.23
57086;BME280;42964;42.910;23.792;2023-04-24T10:31:34;97116.53;;;21.46;34.42
57086;BME280;42964;42.910;23.792;2023-04-24T10:36:34;97119.25;;;21.92;33.52
57086;BME280;42964;42.910;23.792;2023-04-24T10:41:37;97112.81;;;22.28;33.21
57086;BME280;42964;42.910;23.792;2023-04-24T10:46:37;97116.69;;;22.37;32.69
57086;BME280;42964;42.910;23.792;2023-04-24T10:51:50;97101.09;;;22.63;33.70
57086;BME280;42964;42.910;23.792;2023-04-24T10:56:51;97097.66;;;22.76;32.02
57086;BME280;42964;42.910;23.792;2023-04-24T11:01:54;97096.22;;;22.55;33.10
57086;BME280;42964;42.910;23.792;2023-04-24T11:06:56;97083.63;;;22.60;32.38
57086;BME280;42964;42.910;23.792;2023-04-24T11:12:14;97081.06;;;22.73;31.50
57086;BME280;42964;42.910;23.792;2023-04-24T11:17:30;97050.19;;;23.02;32.27
57086;BME280;42964;42.910;23.792;2023-04-24T11:22:33;97053.56;;;23.33;31.11
57086;BME280;42964;42.910;23.792;2023-04-24T11:27:42;97048.75;;;23.11;31.35
57086;BME280;42964;42.910;23.792;2023-04-24T11:32:42;97048.88;;;22.95;30.09
57086;BME280;42964;42.910;23.792;2023-04-24T11:37:43;97036.41;;;22.83;30.17
57086;BME280;42964;42.910;23.792;2023-04-24T11:42:48;97013.94;;;22.75;31.10
57086;BME280;42964;42.910;23.792;2023-04-24T11:47:48;96983.19;;;22.73;29.54
57086;BME280;42964;42.910;23.792;2023-04-24T11:52:48;97014.47;;;22.80;30.22
57086;BME280;42964;42.910;23.792;2023-04-24T11:57:49;96994.31;;;23.07;30.70
57086;BME280;42964;42.910;23.792;2023-04-24T12:02:50;96983.59;;;22.95;30.47
57086;BME280;42964;42.910;23.792;2023-04-24T12:07:50;96981.03;;;22.51;29.75
57086;BME280;42964;42.910;23.792;2023-04-24T12:12:50;96974.72;;;22.53;29.79
57086;BME280;42964;42.910;23.792;2023-04-24T12:17:54;96973.88;;;22.82;29.87
57086;BME280;42964;42.910;23.792;2023-04-24T12:22:55;96965.91;;;23.37;29.73
57086;BME280;42964;42.910;23.792;2023-04-24T12:28:08;96950.00;;;23.64;29.11
57086;BME280;42964;42.910;23.792;2023-04-24T12:33:10;96938.44;;;23.26;29.27
57086;BME280;42964;42.910;23.792;2023-04-24T12:38:11;96942.31;;;22.64;30.07
57086;BME280;42964;42.910;23.792;2023-04-24T12:43:15;96940.31;;;22.10;34.84
57086;BME280;42964;42.910;23.792;2023-04-24T12:48:14;96897.84;;;21.24;36.92
57086;BME280;42964;42.910;23.792;2023-04-24T12:53:13;96939.34;;;20.57;39.02
57086;BME280;42964;42.910;23.792;2023-04-24T12:58:13;96969.19;;;20.07;41.03
57086;BME280;42964;42.910;23.792;2023-04-24T13:03:12;96987.25;;;19.26;43.87
57086;BME280;42964;42.910;23.792;2023-04-24T13:08:11;97002.63;;;18.97;46.31
57086;BME280;42964;42.910;23.792;2023-04-24T13:13:11;96999.66;;;18.47;46.27
57086;BME280;42964;42.910;23.792;2023-04-24T13:18:10;96993.88;;;17.99;48.00
57086;BME280;42964;42.910;23.792;2023-04-24T13:23:09;97034.44;;;17.48;52.01
57086;BME280;42964;42.910;23.792;2023-04-24T13:28:09;97019.31;;;17.10;51.84
57086;BME280;42964;42.910;23.792;2023-04-24T13:33:08;97046.13;;;17.17;51.21
57086;BME280;42964;42.910;23.792;2023-04-24T13:38:06;97049.50;;;17.43;50.08
57086;BME280;42964;42.910;23.792;2023-04-24T13:43:05;97060.78;;;17.89;50.84
57086;BME280;42964;42.910;23.792;2023-04-24T13:48:04;97051.81;;;18.35;50.93
57086;BME280;42964;42.910;23.792;2023-04-24T13:53:03;97044.50;;;19.02;49.25
57086;BME280;42964;42.910;23.792;2023-04-24T13:58:02;97033.38;;;19.33;47.72
57086;BME280;42964;42.910;23.792;2023-04-24T14:03:01;97018.47;;;19.70;47.02
57086;BME280;42964;42.910;23.792;2023-04-24T14:08:00;97013.59;;;19.80;46.52
57086;BME280;42964;42.910;23.792;2023-04-24T14:12:59;97006.78;;;19.93;45.46
57086;BME280;42964;42.910;23.792;2023-04-24T14:17:58;96993.78;;;19.54;45.84
57086;BME280;42964;42.910;23.792;2023-04-24T14:23:02;96980.59;;;19.36;45.79
57086;BME280;42964;42.910;23.792;2023-04-24T14:28:01;96965.63;;;19.19;44.56
57086;BME280;42964;42.910;23.792;2023-04-24T14:33:01;96959.78;;;18.95;44.18
57086;BME280;42964;42.910;23.792;2023-04-24T14:38:01;96961.63;;;18.93;44.38
57086;BME280;42964;42.910;23.792;2023-04-24T14:43:01;96940.63;;;18.74;44.13
57086;BME280;42964;42.910;23.792;2023-04-24T14:48:01;96941.50;;;18.54;46.60
57086;BME280;42964;42.910;23.792;2023-04-24T14:52:59;96931.09;;;18.13;47.96
57086;BME280;42964;42.910;23.792;2023-04-24T14:58:00;96922.56;;;17.67;49.44
57086;BME280;42964;42.910;23.792;2023-04-24T15:03:00;96916.66;;;17.42;50.48
57086;BME280;42964;42.910;23.792;2023-04-24T15:07:59;96904.56;;;17.38;52.16
57086;BME280;42964;42.910;23.792;2023-04-24T15:12:58;96929.25;;;17.33;52.56
57086;BME280;42964;42.910;23.792;2023-04-24T15:17:57;96905.44;;;17.59;52.20
57086;BME280;42964;42.910;23.792;2023-04-24T15:22:56;96915.47;;;17.69;51.42
57086;BME280;42964;42.910;23.792;2023-04-24T15:27:57;96905.91;;;17.89;52.00
57086;BME280;42964;42.910;23.792;2023-04-24T15:32:57;96914.22;;;17.98;51.31
57086;BME280;42964;42.910;23.792;2023-04-24T15:37:56;96909.03;;;17.78;50.84
57086;BME280;42964;42.910;23.792;2023-04-24T15:42:55;96908.28;;;17.11;55.10
57086;BME280;42964;42.910;23.792;2023-04-24T15:47:54;96914.78;;;17.23;54.97
57086;BME280;42964;42.910;23.792;2023-04-24T15:52:53;96909.91;;;17.36;55.67
57086;BME280;42964;42.910;23.792;2023-04-24T15:57:53;96888.94;;;16.93;57.37
57086;BME280;42964;42.910;23.792;2023-04-24T16:02:51;96922.63;;;17.03;58.57
57086;BME280;42964;42.910;23.792;2023-04-24T16:07:50;96952.34;;;17.02;59.04
57086;BME280;42964;42.910;23.792;2023-04-24T16:12:49;96961.59;;;16.88;60.47
57086;BME280;42964;42.910;23.792;2023-04-24T16:17:52;96968.00;;;16.34;67.53
57086;BME280;42964;42.910;23.792;2023-04-24T16:22:51;96972.47;;;15.82;73.43
57086;BME280;42964;42.910;23.792;2023-04-24T16:27:50;96982.78;;;15.33;75.36
57086;BME280;42964;42.910;23.792;2023-04-24T16:32:50;96983.69;;;14.76;77.74
57086;BME280;42964;42.910;23.792;2023-04-24T16:37:49;97000.09;;;13.86;80.68
57086;BME280;42964;42.910;23.792;2023-04-24T16:42:47;96998.03;;;13.66;80.58
57086;BME280;42964;42.910;23.792;2023-04-24T16:47:47;97012.84;;;13.64;80.73
57086;BME280;42964;42.910;23.792;2023-04-24T16:52:46;97018.38;;;13.84;82.35
57086;BME280;42964;42.910;23.792;2023-04-24T16:57:45;97021.63;;;13.22;89.52
57086;BME280;42964;42.910;23.792;2023-04-24T17:02:44;97014.94;;;13.10;89.83
57086;BME280;42964;42.910;23.792;2023-04-24T17:07:46;97020.50;;;12.95;92.16
57086;BME280;42964;42.910;23.792;2023-04-24T17:12:44;97025.69;;;12.95;93.06
57086;BME280;42964;42.910;23.792;2023-04-24T17:17:43;97037.53;;;13.10;93.85
57086;BME280;42964;42.910;23.792;2023-04-24T17:22:43;97029.00;;;13.03;94.64
57086;BME280;42964;42.910;23.792;2023-04-24T17:27:43;97060.91;;;13.13;95.20
57086;BME280;42964;42.910;23.792;2023-04-24T17:32:42;97063.69;;;13.05;95.95
57086;BME280;42964;42.910;23.792;2023-04-24T17:37:42;97067.31;;;12.98;95.75
57086;BME280;42964;42.910;23.792;2023-04-24T17:42:41;97072.72;;;12.89;95.74
57086;BME280;42964;42.910;23.792;2023-04-24T17:47:40;97086.69;;;12.85;96.57
57086;BME280;42964;42.910;23.792;2023-04-24T17:52:39;97019.75;;;12.49;96.99
57086;BME280;42964;42.910;23.792;2023-04-24T17:57:38;97094.69;;;12.76;97.01
57086;BME280;42964;42.910;23.792;2023-04-24T18:02:37;97101.81;;;12.66;97.41
57086;BME280;42964;42.910;23.792;2023-04-24T18:07:36;97090.09;;;12.43;98.29
57086;BME280;42964;42.910;23.792;2023-04-24T18:12:36;97088.56;;;12.35;99.24
57086;BME280;42964;42.910;23.792;2023-04-24T18:17:35;97089.56;;;12.27;99.36
57086;BME280;42964;42.910;23.792;2023-04-24T18:22:34;97089.44;;;12.32;99.85
57086;BME280;42964;42.910;23.792;2023-04-24T18:27:34;97079.09;;;12.30;100.00
57086;BME280;42964;42.910;23.792;2023-04-24T18:32:33;97051.88;;;11.99;100.00
57086;BME280;42964;42.910;23.792;2023-04-24T18:37:32;97067.25;;;12.13;100.00
57086;BME280;42964;42.910;23.792;2023-04-24T18:42:31;97074.97;;;12.17;100.00
57086;BME280;42964;42.910;23.792;2023-04-24T18:47:30;97084.56;;;12.14;99.58
57086;BME280;42964;42.910;23.792;2023-04-24T18:52:29;97073.28;;;12.15;99.84
57086;BME280;42964;42.910;23.792;2023-04-24T18:57:28;97081.97;;;12.14;100.00
57086;BME280;42964;42.910;23.792;2023-04-24T19:02:27;97082.00;;;12.12;100.00
57086;BME280;42964;42.910;23.792;2023-04-24T19:07:26;97077.63;;;12.13;100.00
57086;BME280;42964;42.910;23.792;2023-04-24T19:12:27;97076.72;;;12.17;100.00
57086;BME280;42964;42.910;23.792;2023-04-24T19:17:25;97073.97;;;12.27;100.00
57086;BME280;42964;42.910;23.792;2023-04-24T19:22:24;97072.13;;;12.31;100.00
57086;BME280;42964;42.910;23.792;2023-04-24T19:27:23;97072.97;;;12.32;100.00
57086;BME280;42964;42.910;23.792;2023-04-24T19:32:22;97072.91;;;12.36;100.00
57086;BME280;42964;42.910;23.792;2023-04-24T19:37:21;97077.06;;;12.46;100.00
57086;BME280;42964;42.910;23.792;2023-04-24T19:42:20;97071.19;;;12.35;100.00
57086;BME280;42964;42.910;23.792;2023-04-24T19:47:19;97051.44;;;12.23;100.00
57086;BME280;42964;42.910;23.792;2023-04-24T19:52:18;97077.47;;;12.23;100.00
57086;BME280;42964;42.910;23.792;2023-04-24T19:57:17;97072.28;;;12.20;100.00
57086;BME280;42964;42.910;23.792;2023-04-24T20:02:16;97074.81;;;12.25;100.00
57086;BME280;42964;42.910;23.792;2023-04-24T20:07:15;97079.88;;;12.34;100.00
57086;BME280;42964;42.910;23.792;2023-04-24T20:12:14;97086.84;;;12.32;100.00
57086;BME280;42964;42.910;23.792;2023-04-24T20:17:14;97091.03;;;12.41;100.00
57086;BME280;42964;42.910;23.792;2023-04-24T20:22:13;97035.44;;;11.98;100.00
57086;BME280;42964;42.910;23.792;2023-04-24T20:27:13;97037.03;;;12.05;100.00
57086;BME280;42964;42.910;23.792;2023-04-24T20:32:12;97073.03;;;12.27;100.00
57086;BME280;42964;42.910;23.792;2023-04-24T20:37:11;97057.34;;;12.33;100.00
57086;BME280;42964;42.910;23.792;2023-04-24T20:42:10;97039.16;;;12.32;100.00
57086;BME280;42964;42.910;23.792;2023-04-24T20:47:09;97033.94;;;12.35;100.00
57086;BME280;42964;42.910;23.792;2023-04-24T20:52:08;97021.63;;;12.41;100.00
57086;BME280;42964;42.910;23.792;2023-04-24T20:57:07;97009.72;;;12.29;100.00
57086;BME280;42964;42.910;23.792;2023-04-24T21:02:06;96997.69;;;12.22;100.00
57086;BME280;42964;42.910;23.792;2023-04-24T21:07:05;96986.53;;;12.16;100.00
57086;BME280;42964;42.910;23.792;2023-04-24T21:12:04;96971.06;;;12.11;100.00
57086;BME280;42964;42.910;23.792;2023-04-24T21:17:03;96970.69;;;12.29;100.00
57086;BME280;42964;42.910;23.792;2023-04-24T21:22:03;96950.03;;;12.22;100.00
57086;BME280;42964;42.910;23.792;2023-04-24T21:27:01;96941.13;;;12.34;100.00
57086;BME280;42964;42.910;23.792;2023-04-24T21:32:01;96930.03;;;12.24;100.00
57086;BME280;42964;42.910;23.792;2023-04-24T21:37:00;96944.59;;;12.34;100.00
57086;BME280;42964;42.910;23.792;2023-04-24T21:41:59;96952.13;;;12.03;100.00
57086;BME280;42964;42.910;23.792;2023-04-24T21:46:58;96961.78;;;11.98;100.00
57086;BME280;42964;42.910;23.792;2023-04-24T21:51:57;96964.22;;;12.04;100.00
57086;BME280;42964;42.910;23.792;2023-04-24T21:56:56;96971.81;;;12.16;100.00
57086;BME280;42964;42.910;23.792;2023-04-24T22:01:55;96966.66;;;12.13;100.00
57086;BME280;42964;42.910;23.792;2023-04-24T22:06:53;96956.16;;;12.18;100.00
57086;BME280;42964;42.910;23.792;2023-04-24T22:11:52;96946.59;;;12.20;100.00
57086;BME280;42964;42.910;23.792;2023-04-24T22:16:51;96943.34;;;12.08;100.00
57086;BME280;42964;42.910;23.792;2023-04-24T22:21:50;96944.88;;;12.19;100.00
57086;BME280;42964;42.910;23.792;2023-04-24T22:26:49;96930.22;;;12.16;100.00
57086;BME280;42964;42.910;23.792;2023-04-24T22:31:48;96909.22;;;12.25;100.00
57086;BME280;42964;42.910;23.792;2023-04-24T22:36:48;96904.88;;;12.24;100.00
57086;BME280;42964;42.910;23.792;2023-04-24T22:41:46;96901.38;;;12.28;100.00
57086;BME280;42964;42.910;23.792;2023-04-24T22:46:45;96896.94;;;12.32;100.00
57086;BME280;42964;42.910;23.792;2023-04-24T22:51:45;96886.88;;;12.15;100.00
57086;BME280;42964;42.910;23.792;2023-04-24T22:56:45;96893.13;;;12.06;100.00
57086;BME280;42964;42.910;23.792;2023-04-24T23:01:44;96881.03;;;12.04;100.00
57086;BME280;42964;42.910;23.792;2023-04-24T23:06:43;96880.78;;;11.74;100.00
57086;BME280;42964;42.910;23.792;2023-04-24T23:11:42;96872.34;;;11.61;100.00
57086;BME280;42964;42.910;23.792;2023-04-24T23:16:41;96872.09;;;11.75;100.00
57086;BME280;42964;42.910;23.792;2023-04-24T23:21:40;96872.09;;;11.75;100.00
57086;BME280;42964;42.910;23.792;2023-04-24T23:26:39;96875.75;;;11.65;100.00
57086;BME280;42964;42.910;23.792;2023-04-24T23:31:38;96873.31;;;11.57;100.00
57086;BME280;42964;42.910;23.792;2023-04-24T23:36:37;96875.78;;;11.63;100.00
57086;BME280;42964;42.910;23.792;2023-04-24T23:41:36;96878.94;;;11.79;100.00
57086;BME280;42964;42.910;23.792;2023-04-24T23:46:35;96886.56;;;11.87;100.00
57086;BME280;42964;42.910;23.792;2023-04-24T23:51:34;96877.81;;;11.93;100.00
57086;BME280;42964;42.910;23.792;2023-04-24T23:56:33;96890.75;;;11.96;100.00
